Time;durP1;ratioP1;P1;durP2;ratioP2;P2;SDS_P1;SDS_P2;PMS_P1;PMS_P2;Temp;Humidity;BMP_temperature;BMP_pressure;BME280_temperature;BME280_humidity;BME280_pressure;Samples;Min_cycle;Max_cycle;Signal;HPM_P1;HPM_P2
2023/07/29 00:01:36;;;;;;;;;;;24.20;60.90;;;;;;5015215;28;19928;-76
2023/07/29 00:04:02;;;;;;;;;;;24.30;60.90;;;;;;5015122;28;19910;-76
2023/07/29 00:06:27;;;;;;;;;;;24.30;60.80;;;;;;5014763;28;19917;-75
2023/07/29 00:08:53;;;;;;;;;;;24.30;60.70;;;;;;5015262;28;19949;-75
2023/07/29 00:11:18;;;;;;;;;;;24.40;60.70;;;;;;5014834;28;20320;-76
2023/07/29 00:13:44;;;;;;;;;;;24.30;60.60;;;;;;5014926;28;19931;-76
2023/07/29 00:16:09;;;;;;;;;;;24.40;60.60;;;;;;5014523;28;20039;-75
2023/07/29 00:18:35;;;;;;;;;;;24.40;60.50;;;;;;5014758;28;19913;-75
2023/07/29 00:21:00;;;;;;;;;;;24.40;60.50;;;;;;5014759;28;19918;-75
2023/07/29 00:23:26;;;;;;;;;;;24.50;60.40;;;;;;5014890;28;19909;-75
2023/07/29 00:25:51;;;;;;;;;;;24.50;60.30;;;;;;5014444;28;19963;-75
2023/07/29 00:28:17;;;;;;;;;;;24.50;60.30;;;;;;5014760;28;19910;-75
2023/07/29 00:30:42;;;;;;;;;;;24.50;60.20;;;;;;5014349;28;20019;-75
2023/07/29 00:33:08;;;;;;;;;;;24.50;60.10;;;;;;5014591;28;20289;-75
2023/07/29 00:35:34;;;;;;;;;;;24.60;60.10;;;;;;5014199;28;19976;-75
2023/07/29 00:38:02;;;;;;;;;;;24.50;60.10;;;;;;5014860;28;19914;-76
2023/07/29 00:40:28;;;;;;;;;;;24.60;60.10;;;;;;4996598;28;19997;-69
2023/07/29 00:42:54;;;;;;;;;;;24.50;60.10;;;;;;5014433;28;20562;-69
2023/07/29 00:45:19;;;;;;;;;;;24.60;60.10;;;;;;5014308;28;19921;-69
2023/07/29 00:47:45;;;;;;;;;;;24.60;60.00;;;;;;5014271;28;19925;-69
2023/07/29 00:50:11;;;;;;;;;;;24.60;60.00;;;;;;5014056;28;19921;-69
2023/07/29 00:52:37;;;;;;;;;;;24.60;60.00;;;;;;4997054;28;19909;-71
2023/07/29 00:55:03;;;;;;;;;;;24.60;60.00;;;;;;5014317;28;20276;-70
2023/07/29 00:57:29;;;;;;;;;;;24.60;59.90;;;;;;5013950;28;19914;-70
2023/07/29 00:59:55;;;;;;;;;;;24.60;59.90;;;;;;5014096;28;19917;-69
2023/07/29 01:02:21;;;;;;;;;;;24.60;59.90;;;;;;5014391;28;20332;-70
2023/07/29 01:04:51;;;;;;;;;;;24.60;59.90;;;;;;5014185;28;19909;-70
2023/07/29 01:07:16;;;;;;;;;;;24.60;59.90;;;;;;5013805;28;20000;-70
2023/07/29 01:09:48;;;;;;;;;;;24.60;59.80;;;;;;4996049;28;20016;-71
2023/07/29 01:12:32;;;;;;;;;;;24.60;59.80;;;;;;5014405;28;19964;-70
2023/07/29 01:15:06;;;;;;;;;;;24.70;59.80;;;;;;5013902;28;19921;-70
2023/07/29 01:17:38;;;;;;;;;;;24.60;59.80;;;;;;5013874;28;20017;-70
2023/07/29 01:20:05;;;;;;;;;;;24.60;59.80;;;;;;5010224;28;19918;-70
2023/07/29 01:22:31;;;;;;;;;;;24.60;59.70;;;;;;4996272;28;20387;-70
2023/07/29 01:24:58;;;;;;;;;;;24.60;59.70;;;;;;5013646;28;19917;-69
2023/07/29 01:27:23;;;;;;;;;;;24.60;59.60;;;;;;5013569;28;19928;-70
2023/07/29 01:29:48;;;;;;;;;;;24.60;59.60;;;;;;5013134;28;20398;-70
2023/07/29 01:32:17;;;;;;;;;;;24.60;59.60;;;;;;5014164;28;20308;-72
2023/07/29 01:34:48;;;;;;;;;;;24.60;59.60;;;;;;5013684;28;19913;-70
2023/07/29 01:37:16;;;;;;;;;;;24.60;59.60;;;;;;5013673;28;19920;-70
2023/07/29 01:39:42;;;;;;;;;;;24.60;59.60;;;;;;4995724;28;19913;-70
2023/07/29 01:42:07;;;;;;;;;;;24.60;59.70;;;;;;5011563;28;20012;-70
2023/07/29 01:44:33;;;;;;;;;;;24.50;59.70;;;;;;5014475;28;19996;-70
2023/07/29 01:46:59;;;;;;;;;;;24.60;59.70;;;;;;5012964;28;19914;-71
2023/07/29 01:49:25;;;;;;;;;;;24.60;59.80;;;;;;5012837;28;19914;-76
2023/07/29 01:51:50;;;;;;;;;;;24.60;59.80;;;;;;4996338;28;19967;-75
2023/07/29 01:54:15;;;;;;;;;;;24.50;59.80;;;;;;5013458;28;19910;-75
2023/07/29 01:56:41;;;;;;;;;;;24.60;59.90;;;;;;5013189;28;20012;-76
2023/07/29 01:59:06;;;;;;;;;;;24.60;59.80;;;;;;5012292;28;20210;-75
2023/07/29 02:01:32;;;;;;;;;;;24.50;59.90;;;;;;5012751;28;19968;-76
2023/07/29 02:03:57;;;;;;;;;;;24.50;60.00;;;;;;5013098;28;19910;-75
2023/07/29 02:06:23;;;;;;;;;;;24.50;60.00;;;;;;5012148;28;19967;-76
2023/07/29 02:08:48;;;;;;;;;;;24.50;60.00;;;;;;5012603;28;19910;-76
2023/07/29 02:11:14;;;;;;;;;;;24.50;60.00;;;;;;4994882;28;19957;-77
2023/07/29 02:13:39;;;;;;;;;;;24.50;60.10;;;;;;5012385;28;19914;-76
2023/07/29 02:16:05;;;;;;;;;;;24.50;60.10;;;;;;5012886;28;19925;-76
2023/07/29 02:18:30;;;;;;;;;;;24.40;60.10;;;;;;5012180;28;19953;-75
2023/07/29 02:20:56;;;;;;;;;;;24.50;60.20;;;;;;5013074;28;19918;-75
2023/07/29 02:23:21;;;;;;;;;;;24.40;60.30;;;;;;5012412;28;20343;-75
2023/07/29 02:25:47;;;;;;;;;;;24.40;60.40;;;;;;5013001;28;20385;-75
2023/07/29 02:28:12;;;;;;;;;;;24.40;60.50;;;;;;5012080;28;20280;-76
2023/07/29 02:30:41;;;;;;;;;;;24.40;60.50;;;;;;5012150;28;19918;-76
2023/07/29 02:33:06;;;;;;;;;;;24.40;60.50;;;;;;5012396;28;19915;-76
2023/07/29 02:35:32;;;;;;;;;;;24.40;60.50;;;;;;5012561;28;19925;-75
2023/07/29 02:37:57;;;;;;;;;;;24.30;60.60;;;;;;5012230;28;19917;-75
2023/07/29 02:40:24;;;;;;;;;;;24.30;60.80;;;;;;5010519;28;19923;-76
2023/07/29 02:42:50;;;;;;;;;;;24.20;60.80;;;;;;5012511;28;19924;-77
2023/07/29 02:45:15;;;;;;;;;;;24.10;61.00;;;;;;5011952;28;20276;-77
2023/07/29 02:47:41;;;;;;;;;;;24.00;61.00;;;;;;5012396;28;20285;-77
2023/07/29 02:50:06;;;;;;;;;;;24.00;61.20;;;;;;5011437;28;19965;-76
2023/07/29 02:52:32;;;;;;;;;;;23.90;61.50;;;;;;5011981;28;20376;-76
2023/07/29 02:54:57;;;;;;;;;;;23.90;61.50;;;;;;5012205;28;19953;-77
2023/07/29 02:57:23;;;;;;;;;;;23.80;61.80;;;;;;5011917;28;20368;-77
2023/07/29 02:59:48;;;;;;;;;;;23.90;61.90;;;;;;5011619;28;19917;-70
2023/07/29 03:02:16;;;;;;;;;;;23.90;61.90;;;;;;5011930;28;19918;-70
2023/07/29 03:04:41;;;;;;;;;;;23.90;62.00;;;;;;5011449;28;19917;-70
2023/07/29 03:07:07;;;;;;;;;;;23.90;61.90;;;;;;4994172;28;19955;-71
2023/07/29 03:09:33;;;;;;;;;;;23.90;61.90;;;;;;5010944;28;20276;-71
2023/07/29 03:11:59;;;;;;;;;;;23.90;62.00;;;;;;5012153;28;19918;-70
2023/07/29 03:14:24;;;;;;;;;;;24.00;62.10;;;;;;5011338;28;19924;-71
2023/07/29 03:16:50;;;;;;;;;;;24.00;62.10;;;;;;5012491;28;19918;-70
2023/07/29 03:19:16;;;;;;;;;;;23.90;62.10;;;;;;5011391;28;20253;-72
2023/07/29 03:21:41;;;;;;;;;;;23.90;62.00;;;;;;5011561;28;19957;-71
2023/07/29 03:24:07;;;;;;;;;;;24.00;62.10;;;;;;5011718;28;19936;-70
2023/07/29 03:26:32;;;;;;;;;;;23.90;61.90;;;;;;5011586;28;20319;-69
2023/07/29 03:28:58;;;;;;;;;;;23.80;61.90;;;;;;5011620;28;20008;-70
2023/07/29 03:31:23;;;;;;;;;;;23.80;61.90;;;;;;5011210;28;19928;-70
2023/07/29 03:33:49;;;;;;;;;;;23.80;61.90;;;;;;5011583;28;19913;-70
2023/07/29 03:36:15;;;;;;;;;;;23.80;61.90;;;;;;5011756;28;19924;-70
2023/07/29 03:38:41;;;;;;;;;;;23.80;61.90;;;;;;5011721;28;19909;-70
2023/07/29 03:41:07;;;;;;;;;;;23.80;61.90;;;;;;5011122;28;19968;-70
2023/07/29 03:43:33;;;;;;;;;;;23.80;61.90;;;;;;5011805;28;19913;-70
2023/07/29 03:45:58;;;;;;;;;;;23.70;61.80;;;;;;5011707;28;19967;-70
2023/07/29 03:48:23;;;;;;;;;;;23.70;61.70;;;;;;5010942;28;19928;-72
2023/07/29 03:50:49;;;;;;;;;;;23.70;61.80;;;;;;5010716;28;20020;-71
2023/07/29 03:53:15;;;;;;;;;;;23.80;61.80;;;;;;4993901;28;19909;-69
2023/07/29 03:55:40;;;;;;;;;;;23.80;61.90;;;;;;5000249;28;19975;-69
2023/07/29 03:58:06;;;;;;;;;;;23.80;61.90;;;;;;5011598;28;20391;-69
2023/07/29 04:00:31;;;;;;;;;;;23.80;61.90;;;;;;5010441;28;19921;-69
2023/07/29 04:02:57;;;;;;;;;;;23.80;61.90;;;;;;5011478;28;19968;-69
2023/07/29 04:05:22;;;;;;;;;;;23.80;61.80;;;;;;5011139;28;20404;-69
2023/07/29 04:07:48;;;;;;;;;;;23.80;61.80;;;;;;5011329;28;19917;-69
2023/07/29 04:10:13;;;;;;;;;;;23.80;61.80;;;;;;5011163;28;19917;-70
2023/07/29 04:12:39;;;;;;;;;;;23.90;61.80;;;;;;5011608;28;19913;-70
2023/07/29 04:15:05;;;;;;;;;;;23.80;61.90;;;;;;5010978;28;20192;-70
2023/07/29 04:17:30;;;;;;;;;;;23.90;61.90;;;;;;5011296;28;19910;-69
2023/07/29 04:19:55;;;;;;;;;;;23.90;61.80;;;;;;5011138;28;19917;-69
2023/07/29 04:22:21;;;;;;;;;;;23.90;61.80;;;;;;5010783;28;19913;-69
2023/07/29 04:24:47;;;;;;;;;;;23.90;62.00;;;;;;5011098;28;19941;-69
2023/07/29 04:27:12;;;;;;;;;;;23.90;62.00;;;;;;5011233;28;19916;-68
2023/07/29 04:29:38;;;;;;;;;;;23.90;62.00;;;;;;5012497;28;19910;-69
2023/07/29 04:32:03;;;;;;;;;;;24.00;62.00;;;;;;4996957;28;19910;-69
2023/07/29 04:34:29;;;;;;;;;;;24.00;62.00;;;;;;5014421;28;19925;-69
2023/07/29 04:36:54;;;;;;;;;;;24.00;62.00;;;;;;5002404;28;19925;-69
2023/07/29 04:39:20;;;;;;;;;;;24.10;61.90;;;;;;5026840;28;20015;-70
2023/07/29 04:41:46;;;;;;;;;;;24.10;61.80;;;;;;5014679;28;20365;-70
2023/07/29 04:44:11;;;;;;;;;;;24.10;61.80;;;;;;5014522;28;20013;-69
2023/07/29 04:46:37;;;;;;;;;;;24.20;61.80;;;;;;5014839;28;19925;-69
2023/07/29 04:49:02;;;;;;;;;;;24.20;61.80;;;;;;4997392;28;19917;-69
2023/07/29 04:51:28;;;;;;;;;;;24.30;61.80;;;;;;4996124;28;20067;-69
2023/07/29 04:53:53;;;;;;;;;;;24.30;61.80;;;;;;5014283;28;19957;-70
2023/07/29 04:56:19;;;;;;;;;;;24.40;61.80;;;;;;5014689;28;19921;-68
2023/07/29 04:58:44;;;;;;;;;;;24.50;61.80;;;;;;5014475;28;19920;-69
2023/07/29 05:01:10;;;;;;;;;;;24.50;61.90;;;;;;5014093;28;19917;-70
2023/07/29 05:03:36;;;;;;;;;;;24.60;61.80;;;;;;5014003;28;19917;-69
2023/07/29 05:06:02;;;;;;;;;;;24.60;61.80;;;;;;5014336;28;19925;-69
2023/07/29 05:08:27;;;;;;;;;;;24.70;61.80;;;;;;5013876;28;19909;-69
2023/07/29 05:10:54;;;;;;;;;;;24.70;61.80;;;;;;5014262;28;19960;-69
2023/07/29 05:13:19;;;;;;;;;;;24.80;61.70;;;;;;5013548;28;20372;-69
2023/07/29 05:15:46;;;;;;;;;;;24.80;61.70;;;;;;5014094;28;19921;-70
2023/07/29 05:18:12;;;;;;;;;;;24.80;61.60;;;;;;5014072;28;19909;-70
2023/07/29 05:20:37;;;;;;;;;;;24.80;61.70;;;;;;4995873;28;20412;-69
2023/07/29 05:23:03;;;;;;;;;;;24.90;61.60;;;;;;5013449;28;20386;-69
2023/07/29 05:25:28;;;;;;;;;;;25.00;61.60;;;;;;5013913;28;19918;-71
2023/07/29 05:27:54;;;;;;;;;;;25.00;61.40;;;;;;5014005;28;19910;-70
2023/07/29 05:30:20;;;;;;;;;;;25.00;61.40;;;;;;5013499;28;19921;-69
2023/07/29 05:32:45;;;;;;;;;;;25.10;61.40;;;;;;5013447;28;19959;-69
2023/07/29 05:35:10;;;;;;;;;;;25.20;61.40;;;;;;5013542;28;20353;-69
2023/07/29 05:37:38;;;;;;;;;;;25.30;61.30;;;;;;5013712;28;20309;-69
2023/07/29 05:40:03;;;;;;;;;;;25.30;61.10;;;;;;5012880;28;20369;-69
2023/07/29 05:42:29;;;;;;;;;;;25.50;60.90;;;;;;4994977;28;19964;-70
2023/07/29 05:44:55;;;;;;;;;;;25.50;60.80;;;;;;5012960;28;20361;-68
2023/07/29 05:47:20;;;;;;;;;;;25.50;60.80;;;;;;5013513;28;19951;-69
2023/07/29 05:49:46;;;;;;;;;;;25.60;60.50;;;;;;5012703;28;19909;-70
2023/07/29 05:52:11;;;;;;;;;;;25.70;60.40;;;;;;5013410;28;19913;-69
2023/07/29 05:54:37;;;;;;;;;;;25.80;60.40;;;;;;5012418;28;20027;-69
2023/07/29 05:57:02;;;;;;;;;;;25.80;60.40;;;;;;5013599;28;19979;-69
2023/07/29 05:59:29;;;;;;;;;;;25.90;60.20;;;;;;5012642;28;20000;-70
2023/07/29 06:01:55;;;;;;;;;;;25.90;60.10;;;;;;5013455;28;19968;-69
2023/07/29 06:04:20;;;;;;;;;;;26.00;60.00;;;;;;5012721;28;19960;-70
2023/07/29 06:06:46;;;;;;;;;;;26.10;59.80;;;;;;5013244;28;19921;-70
2023/07/29 06:09:13;;;;;;;;;;;26.20;59.70;;;;;;5011985;28;22475;-71
2023/07/29 06:11:38;;;;;;;;;;;26.20;59.50;;;;;;5013097;28;19993;-70
2023/07/29 06:14:04;;;;;;;;;;;26.20;59.30;;;;;;5012571;28;19926;-70
2023/07/29 06:16:29;;;;;;;;;;;26.30;59.10;;;;;;5013172;28;20341;-70
2023/07/29 06:18:55;;;;;;;;;;;26.30;59.00;;;;;;5012699;28;19913;-70
2023/07/29 06:21:20;;;;;;;;;;;26.30;58.60;;;;;;5012623;28;19999;-70
2023/07/29 06:23:46;;;;;;;;;;;26.30;58.40;;;;;;5012124;28;19913;-70
2023/07/29 06:26:12;;;;;;;;;;;26.30;58.30;;;;;;5012841;28;19925;-70
2023/07/29 06:28:37;;;;;;;;;;;26.30;58.30;;;;;;5012858;28;20012;-76
2023/07/29 06:31:02;;;;;;;;;;;26.30;58.10;;;;;;5011854;28;20372;-76
2023/07/29 06:33:28;;;;;;;;;;;26.20;58.10;;;;;;4994601;28;20416;-76
2023/07/29 06:35:53;;;;;;;;;;;26.20;58.20;;;;;;5012094;28;20354;-76
2023/07/29 06:38:21;;;;;;;;;;;26.20;58.20;;;;;;5012436;28;19917;-75
2023/07/29 06:40:50;;;;;;;;;;;26.20;58.30;;;;;;5012044;28;19913;-76
2023/07/29 06:43:16;;;;;;;;;;;26.20;58.50;;;;;;5012083;28;19924;-74
2023/07/29 06:45:41;;;;;;;;;;;26.30;58.50;;;;;;5011951;28;19914;-76
2023/07/29 06:48:07;;;;;;;;;;;26.40;58.50;;;;;;5012046;28;19921;-73
2023/07/29 06:50:32;;;;;;;;;;;26.50;58.30;;;;;;5011774;28;19913;-77
2023/07/29 06:52:58;;;;;;;;;;;26.60;58.20;;;;;;5011810;28;19920;-75
2023/07/29 06:55:23;;;;;;;;;;;26.70;57.80;;;;;;5011558;28;20010;-76
2023/07/29 06:57:48;;;;;;;;;;;26.80;58.00;;;;;;5012111;28;19924;-77
2023/07/29 07:00:14;;;;;;;;;;;26.80;57.70;;;;;;5011888;28;19914;-77
2023/07/29 07:02:39;;;;;;;;;;;26.90;57.50;;;;;;5011967;28;20009;-77
2023/07/29 07:05:05;;;;;;;;;;;27.00;57.50;;;;;;5011359;28;19959;-76
2023/07/29 07:07:30;;;;;;;;;;;27.10;57.20;;;;;;5011911;28;20337;-76
2023/07/29 07:09:56;;;;;;;;;;;27.10;56.60;;;;;;5011530;28;20368;-76
2023/07/29 07:12:22;;;;;;;;;;;27.10;56.60;;;;;;5011693;28;19917;-78
2023/07/29 07:14:48;;;;;;;;;;;27.10;56.70;;;;;;5011527;28;19925;-75
2023/07/29 07:17:13;;;;;;;;;;;27.20;56.60;;;;;;5011864;28;19924;-77
2023/07/29 07:19:39;;;;;;;;;;;27.20;56.50;;;;;;5011323;28;19917;-76
2023/07/29 07:22:04;;;;;;;;;;;27.10;56.20;;;;;;5006957;28;19987;-76
2023/07/29 07:24:30;;;;;;;;;;;27.00;56.40;;;;;;5014883;28;19910;-77
2023/07/29 07:26:55;;;;;;;;;;;27.10;56.40;;;;;;4992116;28;20329;-76
2023/07/29 07:29:21;;;;;;;;;;;27.10;56.40;;;;;;5009101;28;19997;-74
2023/07/29 07:31:51;;;;;;;;;;;27.00;56.50;;;;;;5008283;28;20273;-69
2023/07/29 07:34:16;;;;;;;;;;;26.70;58.90;;;;;;5008687;28;19921;-66
2023/07/29 07:36:42;;;;;;;;;;;26.30;61.30;;;;;;4999067;28;19917;-68
2023/07/29 07:39:07;;;;;;;;;;;25.80;63.40;;;;;;5010663;28;19921;-68
2023/07/29 07:41:33;;;;;;;;;;;25.60;65.20;;;;;;5010617;28;19967;-67
2023/07/29 07:49:09;;;;;;;;;;;25.80;70.20;;;;;;5190462;22;19929;-67
2023/07/29 07:51:34;;;;;;;;;;;26.30;71.60;;;;;;4979385;28;19941;-67
2023/07/29 07:54:00;;;;;;;;;;;26.80;71.10;;;;;;4974380;28;20384;-68
2023/07/29 07:56:25;;;;;;;;;;;27.20;70.10;;;;;;4972473;28;19925;-66
2023/07/29 07:58:51;;;;;;;;;;;27.30;69.80;;;;;;4989787;28;19922;-66
2023/07/29 08:01:16;;;;;;;;;;;27.60;69.90;;;;;;4990528;28;19914;-66
2023/07/29 08:03:42;;;;;;;;;;;27.80;69.50;;;;;;4990915;28;19918;-68
2023/07/29 08:06:07;;;;;;;;;;;27.90;68.90;;;;;;4995578;28;19916;-68
2023/07/29 08:08:33;;;;;;;;;;;28.10;69.00;;;;;;4993708;28;20025;-69
2023/07/29 08:10:58;;;;;;;;;;;28.30;69.40;;;;;;4994462;28;19921;-68
2023/07/29 08:13:24;;;;;;;;;;;28.50;69.10;;;;;;4994476;28;19918;-67
2023/07/29 08:15:50;;;;;;;;;;;28.70;68.60;;;;;;4995751;28;19917;-67
2023/07/29 08:18:16;;;;;;;;;;;28.70;68.10;;;;;;4992734;28;20368;-68
2023/07/29 08:20:50;;;;;;;;;;;28.80;68.50;;;;;;4994888;28;19917;-68
2023/07/29 08:23:16;;;;;;;;;;;28.80;67.30;;;;;;4986885;28;20266;-68
2023/07/29 08:25:41;;;;;;;;;;;28.80;66.80;;;;;;4992007;28;20261;-68
2023/07/29 08:28:07;;;;;;;;;;;28.50;66.30;;;;;;4991144;28;19918;-69
2023/07/29 08:30:32;;;;;;;;;;;28.40;66.70;;;;;;4987192;28;20000;-68
2023/07/29 08:32:58;;;;;;;;;;;28.20;66.40;;;;;;4995011;28;19918;-68
2023/07/29 08:35:23;;;;;;;;;;;28.10;66.90;;;;;;4995036;28;19910;-69
2023/07/29 08:37:49;;;;;;;;;;;28.00;66.30;;;;;;4993803;28;19921;-69
2023/07/29 08:40:14;;;;;;;;;;;28.00;67.20;;;;;;4994490;28;20400;-69
2023/07/29 08:42:40;;;;;;;;;;;28.00;67.80;;;;;;4989453;28;20365;-69
2023/07/29 08:45:08;;;;;;;;;;;28.00;67.30;;;;;;4994689;28;19918;-69
2023/07/29 08:47:33;;;;;;;;;;;28.10;68.30;;;;;;4994386;28;19916;-68
2023/07/29 08:49:59;;;;;;;;;;;28.50;68.70;;;;;;4993439;28;20004;-67
2023/07/29 08:52:25;;;;;;;;;;;28.90;68.30;;;;;;4993417;28;19960;-67
2023/07/29 08:54:52;;;;;;;;;;;29.20;66.20;;;;;;4993200;28;20424;-68
2023/07/29 08:57:18;;;;;;;;;;;29.30;65.60;;;;;;4994123;28;19976;-72
2023/07/29 08:59:45;;;;;;;;;;;29.40;66.90;;;;;;4992501;28;19918;-73
2023/07/29 09:02:10;;;;;;;;;;;29.80;67.20;;;;;;4992321;28;20284;-73
2023/07/29 09:04:36;;;;;;;;;;;30.60;66.00;;;;;;4994949;28;20012;-72
2023/07/29 09:07:02;;;;;;;;;;;31.20;65.20;;;;;;4994128;28;19992;-73
2023/07/29 09:09:27;;;;;;;;;;;31.90;65.50;;;;;;4991619;28;19984;-72
2023/07/29 09:11:53;;;;;;;;;;;32.70;65.40;;;;;;4989025;28;19918;-73
2023/07/29 09:14:19;;;;;;;;;;;33.40;61.60;;;;;;4990959;28;19918;-73
2023/07/29 09:16:45;;;;;;;;;;;34.20;62.80;;;;;;4993808;28;19910;-73
2023/07/29 09:19:11;;;;;;;;;;;34.80;58.40;;;;;;4993881;28;19917;-73
2023/07/29 09:21:38;;;;;;;;;;;35.20;54.50;;;;;;4994119;28;19913;-73
2023/07/29 09:24:05;;;;;;;;;;;35.20;47.30;;;;;;4994594;28;20371;-73
2023/07/29 09:26:31;;;;;;;;;;;35.10;45.80;;;;;;4994106;28;19992;-73
2023/07/29 09:28:57;;;;;;;;;;;35.00;47.50;;;;;;4993639;28;19929;-73
2023/07/29 09:31:25;;;;;;;;;;;35.20;47.50;;;;;;4993402;28;20383;-74
2023/07/29 09:34:00;;;;;;;;;;;35.50;46.30;;;;;;4992298;28;19922;-73
2023/07/29 09:36:26;;;;;;;;;;;35.90;44.30;;;;;;4993457;28;19914;-73
2023/07/29 09:38:53;;;;;;;;;;;36.40;44.40;;;;;;4993268;28;19924;-74
2023/07/29 09:41:18;;;;;;;;;;;37.00;43.60;;;;;;4992987;28;19917;-73
2023/07/29 09:43:44;;;;;;;;;;;37.40;41.30;;;;;;4993708;28;19917;-73
2023/07/29 09:46:09;;;;;;;;;;;37.80;39.80;;;;;;4993747;28;19997;-72
2023/07/29 09:48:35;;;;;;;;;;;38.30;39.00;;;;;;4975959;28;20033;-72
2023/07/29 09:51:09;;;;;;;;;;;38.60;36.10;;;;;;4993026;28;19914;-73
2023/07/29 09:53:38;;;;;;;;;;;38.80;34.50;;;;;;4993895;28;19941;-74
2023/07/29 09:56:04;;;;;;;;;;;39.00;32.00;;;;;;4993911;28;19909;-74
2023/07/29 09:58:30;;;;;;;;;;;39.10;32.80;;;;;;4993202;28;20389;-74
2023/07/29 10:00:55;;;;;;;;;;;39.40;32.10;;;;;;4992826;28;19921;-73
2023/07/29 10:03:21;;;;;;;;;;;39.60;31.20;;;;;;4993107;28;19929;-73
2023/07/29 10:05:47;;;;;;;;;;;39.90;31.00;;;;;;4993658;28;20285;-73
2023/07/29 10:08:13;;;;;;;;;;;39.90;30.80;;;;;;4993335;28;19925;-68
2023/07/29 10:10:39;;;;;;;;;;;39.90;30.10;;;;;;4992505;28;19932;-68
2023/07/29 10:13:04;;;;;;;;;;;39.90;30.90;;;;;;4993047;28;20281;-68
2023/07/29 10:15:31;;;;;;;;;;;40.10;30.40;;;;;;4992580;28;20029;-68
2023/07/29 10:17:57;;;;;;;;;;;40.10;29.40;;;;;;4993103;28;20316;-66
2023/07/29 10:20:22;;;;;;;;;;;39.90;29.20;;;;;;4991944;28;20001;-68
2023/07/29 10:22:48;;;;;;;;;;;39.80;30.00;;;;;;4992685;28;20258;-68
2023/07/29 10:25:16;;;;;;;;;;;39.90;29.90;;;;;;4992902;28;19992;-69
2023/07/29 10:27:43;;;;;;;;;;;39.80;28.80;;;;;;4992519;28;20004;-67
2023/07/29 10:30:13;;;;;;;;;;;39.70;28.80;;;;;;4992310;28;19913;-68
2023/07/29 10:32:41;;;;;;;;;;;39.60;27.60;;;;;;4992778;28;19910;-68
2023/07/29 10:35:06;;;;;;;;;;;39.40;28.20;;;;;;4992760;28;19914;-68
2023/07/29 10:37:32;;;;;;;;;;;39.40;29.20;;;;;;4992708;28;19910;-68
2023/07/29 10:39:58;;;;;;;;;;;39.50;28.10;;;;;;4992464;28;19964;-68
2023/07/29 10:42:23;;;;;;;;;;;39.60;28.50;;;;;;4992272;28;19969;-69
2023/07/29 10:44:50;;;;;;;;;;;39.80;28.00;;;;;;4992195;28;19918;-70
2023/07/29 10:47:16;;;;;;;;;;;39.80;27.90;;;;;;4992364;28;19912;-68
2023/07/29 10:49:45;;;;;;;;;;;39.80;27.20;;;;;;4992140;28;19929;-68
2023/07/29 10:52:15;;;;;;;;;;;39.80;26.80;;;;;;4992108;28;20329;-68
2023/07/29 10:54:44;;;;;;;;;;;39.70;26.50;;;;;;4993014;28;20289;-68
2023/07/29 10:57:13;;;;;;;;;;;39.60;26.80;;;;;;4992258;28;19918;-69
2023/07/29 10:59:38;;;;;;;;;;;39.60;26.90;;;;;;4992695;28;19925;-68
2023/07/29 11:02:11;;;;;;;;;;;39.50;26.90;;;;;;4991715;28;20301;-75
2023/07/29 11:04:46;;;;;;;;;;;39.60;26.80;;;;;;4992855;28;19932;-75
2023/07/29 11:07:12;;;;;;;;;;;39.60;26.90;;;;;;4992228;28;19917;-75
2023/07/29 11:09:39;;;;;;;;;;;39.80;26.50;;;;;;4992678;28;19917;-75
2023/07/29 11:12:05;;;;;;;;;;;39.80;25.30;;;;;;4991758;28;19957;-75
2023/07/29 11:14:31;;;;;;;;;;;39.80;25.30;;;;;;4992630;28;19918;-75
2023/07/29 11:16:57;;;;;;;;;;;39.60;25.20;;;;;;4992348;28;20296;-76
2023/07/29 11:19:22;;;;;;;;;;;39.30;25.10;;;;;;4992434;28;19918;-68
2023/07/29 11:21:48;;;;;;;;;;;39.20;25.80;;;;;;4991566;28;19918;-69
2023/07/29 11:24:17;;;;;;;;;;;39.20;25.70;;;;;;4992175;28;19953;-68
2023/07/29 11:26:46;;;;;;;;;;;39.10;25.70;;;;;;4991244;28;20012;-69
2023/07/29 11:29:11;;;;;;;;;;;38.90;26.30;;;;;;4992227;28;19965;-68
2023/07/29 11:31:40;;;;;;;;;;;39.00;26.00;;;;;;4992054;28;20355;-70
2023/07/29 11:34:06;;;;;;;;;;;39.00;26.00;;;;;;4991924;28;20030;-69
2023/07/29 11:36:32;;;;;;;;;;;38.90;26.20;;;;;;4991992;28;20324;-68
2023/07/29 11:38:58;;;;;;;;;;;39.20;26.70;;;;;;4991204;28;19972;-69
2023/07/29 11:41:23;;;;;;;;;;;39.30;26.20;;;;;;4991815;28;19910;-69
2023/07/29 11:43:49;;;;;;;;;;;39.20;26.20;;;;;;4991387;28;19925;-69
2023/07/29 11:46:14;;;;;;;;;;;39.20;26.10;;;;;;4991958;28;19921;-69
2023/07/29 11:48:44;;;;;;;;;;;39.30;26.20;;;;;;4991515;28;20361;-69
2023/07/29 11:51:11;;;;;;;;;;;39.40;26.30;;;;;;4991563;28;20408;-69
2023/07/29 11:53:36;;;;;;;;;;;39.60;25.70;;;;;;4991514;28;19926;-69
2023/07/29 11:56:03;;;;;;;;;;;39.70;25.00;;;;;;4992150;28;19910;-69
2023/07/29 11:58:28;;;;;;;;;;;39.60;24.80;;;;;;4991807;28;19922;-67
2023/07/29 12:00:54;;;;;;;;;;;39.70;25.00;;;;;;4991486;28;19914;-69
2023/07/29 12:03:19;;;;;;;;;;;39.60;24.70;;;;;;4991232;28;19929;-69
2023/07/29 12:05:45;;;;;;;;;;;39.50;25.10;;;;;;4991728;28;19909;-68
2023/07/29 12:08:11;;;;;;;;;;;39.50;25.30;;;;;;4991592;28;19972;-68
2023/07/29 12:10:37;;;;;;;;;;;39.40;25.30;;;;;;4991833;28;20351;-71
2023/07/29 12:13:03;;;;;;;;;;;39.20;25.30;;;;;;4991577;28;20045;-69
2023/07/29 12:15:29;;;;;;;;;;;39.00;25.40;;;;;;4991697;28;19914;-69
2023/07/29 12:17:57;;;;;;;;;;;38.80;25.60;;;;;;4991465;28;19925;-68
2023/07/29 12:20:23;;;;;;;;;;;38.50;25.40;;;;;;4991327;28;19917;-69
2023/07/29 12:22:52;;;;;;;;;;;38.30;25.80;;;;;;4991129;28;19914;-69
2023/07/29 12:25:18;;;;;;;;;;;38.30;26.20;;;;;;4991123;28;20292;-67
2023/07/29 12:27:43;;;;;;;;;;;38.40;26.50;;;;;;4991447;28;19910;-70
2023/07/29 12:30:09;;;;;;;;;;;38.40;25.90;;;;;;4991447;28;20023;-69
2023/07/29 12:32:42;;;;;;;;;;;38.20;25.90;;;;;;4991343;28;19917;-69
2023/07/29 12:35:09;;;;;;;;;;;37.90;26.40;;;;;;4991565;28;19910;-70
2023/07/29 12:37:35;;;;;;;;;;;37.80;26.40;;;;;;4991193;28;19933;-70
2023/07/29 12:40:01;;;;;;;;;;;37.60;26.80;;;;;;4991255;28;20221;-70
2023/07/29 12:42:26;;;;;;;;;;;37.40;26.70;;;;;;4991180;28;19918;-69
2023/07/29 12:44:51;;;;;;;;;;;37.30;27.00;;;;;;4991379;28;19953;-69
2023/07/29 12:47:17;;;;;;;;;;;37.10;27.30;;;;;;4990008;28;19910;-70
2023/07/29 12:49:42;;;;;;;;;;;36.90;27.70;;;;;;4991261;28;19953;-70
2023/07/29 12:52:08;;;;;;;;;;;36.90;28.10;;;;;;4994984;28;19960;-69
2023/07/29 12:54:33;;;;;;;;;;;37.00;28.10;;;;;;4994600;28;20016;-68
2023/07/29 12:56:59;;;;;;;;;;;37.10;28.20;;;;;;4977496;28;19909;-68
2023/07/29 12:59:24;;;;;;;;;;;37.30;28.20;;;;;;4994981;28;19918;-69
2023/07/29 13:01:49;;;;;;;;;;;37.70;27.70;;;;;;4993905;28;20360;-69
2023/07/29 13:04:15;;;;;;;;;;;37.80;27.40;;;;;;4994629;28;19922;-69
2023/07/29 13:06:40;;;;;;;;;;;37.80;27.10;;;;;;4994493;28;19960;-71
2023/07/29 13:09:06;;;;;;;;;;;37.90;27.70;;;;;;4994555;28;19921;-69
2023/07/29 13:11:34;;;;;;;;;;;38.20;27.30;;;;;;4994381;28;19910;-68
2023/07/29 13:14:00;;;;;;;;;;;38.30;27.40;;;;;;4994610;28;20060;-69
2023/07/29 13:16:26;;;;;;;;;;;38.30;26.90;;;;;;4994125;28;19997;-69
2023/07/29 13:18:52;;;;;;;;;;;38.50;27.30;;;;;;4994357;28;19924;-69
2023/07/29 13:21:17;;;;;;;;;;;38.70;27.00;;;;;;4976660;28;19993;-69
2023/07/29 13:23:43;;;;;;;;;;;38.80;26.80;;;;;;4994483;28;19922;-68
2023/07/29 13:26:08;;;;;;;;;;;38.80;26.40;;;;;;4993824;28;19914;-77
2023/07/29 13:28:33;;;;;;;;;;;38.80;26.00;;;;;;4994252;28;19921;-77
2023/07/29 13:30:59;;;;;;;;;;;38.60;25.90;;;;;;4993972;28;19916;-77
2023/07/29 13:33:24;;;;;;;;;;;38.20;26.30;;;;;;4994139;28;19968;-77
2023/07/29 13:35:50;;;;;;;;;;;38.00;26.60;;;;;;4993829;28;19941;-76
2023/07/29 13:38:16;;;;;;;;;;;38.10;26.70;;;;;;4994422;28;20024;-76
2023/07/29 13:40:41;;;;;;;;;;;38.20;26.90;;;;;;4994127;28;20262;-76
2023/07/29 13:43:07;;;;;;;;;;;38.20;27.20;;;;;;4976308;28;19945;-77
2023/07/29 13:45:33;;;;;;;;;;;38.20;26.70;;;;;;4993735;28;19921;-77
2023/07/29 13:47:58;;;;;;;;;;;38.00;27.00;;;;;;4993116;28;20404;-76
2023/07/29 13:50:24;;;;;;;;;;;37.90;27.20;;;;;;4993552;28;19960;-76
2023/07/29 13:52:49;;;;;;;;;;;37.80;27.10;;;;;;4993500;28;20293;-76
2023/07/29 13:55:15;;;;;;;;;;;38.00;27.10;;;;;;4993980;28;19910;-78
2023/07/29 13:57:40;;;;;;;;;;;37.90;26.90;;;;;;4993147;28;19916;-78
2023/07/29 14:00:07;;;;;;;;;;;37.50;27.00;;;;;;4993825;28;19997;-77
2023/07/29 14:02:32;;;;;;;;;;;37.20;27.40;;;;;;4992354;28;19936;-75
2023/07/29 14:04:58;;;;;;;;;;;36.80;27.70;;;;;;4993290;28;19918;-77
2023/07/29 14:07:23;;;;;;;;;;;36.50;28.20;;;;;;4992745;28;20281;-77
2023/07/29 14:09:48;;;;;;;;;;;36.70;28.40;;;;;;4993733;28;20285;-77
2023/07/29 14:12:15;;;;;;;;;;;37.00;28.30;;;;;;4993178;28;19910;-77
2023/07/29 14:14:41;;;;;;;;;;;37.30;28.20;;;;;;4993449;28;19925;-76